createdAt,value
2019-06-15T00:00:35.096Z,25.53
2019-06-15T00:03:03.636Z,25.52
2019-06-15T00:05:32.254Z,25.48
2019-06-15T00:08:00.654Z,25.44
2019-06-15T00:10:29.105Z,25.42
2019-06-15T00:12:57.515Z,25.41
2019-06-15T00:15:25.978Z,25.41
2019-06-15T00:17:54.510Z,25.39
2019-06-15T00:20:22.917Z,25.34
2019-06-15T00:22:51.324Z,25.30
2019-06-15T00:25:19.746Z,25.25
2019-06-15T00:27:48.215Z,25.21
2019-06-15T00:30:17.060Z,25.18
2019-06-15T00:32:45.486Z,25.15
2019-06-15T00:35:14.259Z,25.10
2019-06-15T00:37:42.656Z,25.06
2019-06-15T00:40:12.663Z,25.02
2019-06-15T00:42:41.078Z,25.00
2019-06-15T00:45:09.689Z,24.97
2019-06-15T00:47:38.134Z,24.94
2019-06-15T00:50:07.180Z,24.92
2019-06-15T00:52:35.584Z,24.91
2019-06-15T00:55:05.648Z,24.85
2019-06-15T00:57:34.800Z,24.80
2019-06-15T01:00:04.806Z,24.72
2019-06-15T01:02:33.263Z,24.65
2019-06-15T01:05:01.919Z,24.62
2019-06-15T01:07:30.319Z,24.60
2019-06-15T01:09:58.875Z,24.60
2019-06-15T01:12:27.397Z,24.58
2019-06-15T01:14:55.864Z,24.53
2019-06-15T01:17:24.363Z,24.47
2019-06-15T01:19:52.768Z,24.40
2019-06-15T01:22:21.157Z,24.36
2019-06-15T01:24:49.630Z,24.33
2019-06-15T01:27:18.019Z,24.32
2019-06-15T01:29:46.885Z,24.31
2019-06-15T01:32:15.305Z,24.30
2019-06-15T01:34:43.711Z,24.30
2019-06-15T01:37:12.111Z,24.31
2019-06-15T01:39:40.576Z,24.31
2019-06-15T01:42:08.982Z,24.30
2019-06-15T01:44:37.454Z,24.28
2019-06-15T01:47:05.970Z,24.27
2019-06-15T01:49:34.359Z,24.29
2019-06-15T01:52:02.845Z,24.33
2019-06-15T01:54:31.267Z,24.34
2019-06-15T01:56:59.732Z,24.34
2019-06-15T01:59:28.177Z,24.35
2019-06-15T02:01:56.750Z,24.34
2019-06-15T02:04:25.175Z,24.32
2019-06-15T02:06:53.627Z,24.30
2019-06-15T02:09:22.194Z,24.28
2019-06-15T02:11:50.597Z,24.27
2019-06-15T02:14:18.993Z,24.23
2019-06-15T02:16:47.419Z,24.22
2019-06-15T02:19:15.814Z,24.20
2019-06-15T02:21:44.215Z,24.21
2019-06-15T02:24:12.771Z,24.18
2019-06-15T02:26:41.152Z,24.14
2019-06-15T02:29:09.554Z,24.12
2019-06-15T02:31:38.192Z,24.12
2019-06-15T02:34:06.592Z,24.12
2019-06-15T02:36:35.065Z,24.10
2019-06-15T02:39:04.932Z,24.12
2019-06-15T02:41:33.335Z,24.14
2019-06-15T02:44:01.874Z,24.15
2019-06-15T02:46:30.315Z,24.17
2019-06-15T02:48:58.776Z,24.17
2019-06-15T02:51:27.337Z,24.17
2019-06-15T02:53:55.848Z,24.18
2019-06-15T02:56:24.270Z,24.21
2019-06-15T02:58:52.644Z,24.23
2019-06-15T03:01:21.113Z,24.26
2019-06-15T03:03:49.511Z,24.31
2019-06-15T03:06:17.982Z,24.36
2019-06-15T03:08:46.832Z,24.40
2019-06-15T03:11:15.222Z,24.44
2019-06-15T03:13:45.142Z,24.47
2019-06-15T03:16:13.701Z,24.49
2019-06-15T03:18:42.100Z,24.49
2019-06-15T03:21:10.507Z,24.49
2019-06-15T03:23:39.005Z,24.50
2019-06-15T03:26:07.470Z,24.50
2019-06-15T03:28:35.869Z,24.48
2019-06-15T03:31:04.498Z,24.44
2019-06-15T03:33:32.893Z,24.41
2019-06-15T03:36:01.320Z,24.38
2019-06-15T03:38:29.930Z,24.36
2019-06-15T03:40:58.401Z,24.33
2019-06-15T03:43:26.801Z,24.31
2019-06-15T03:45:55.220Z,24.29
2019-06-15T03:48:23.617Z,24.27
2019-06-15T03:50:52.016Z,24.26
2019-06-15T03:53:20.457Z,24.22
2019-06-15T03:55:48.862Z,24.20
2019-06-15T03:58:17.316Z,24.20
2019-06-15T04:00:48.121Z,24.17
2019-06-15T04:03:16.666Z,24.14
2019-06-15T04:05:45.418Z,24.10
2019-06-15T04:08:13.925Z,24.09
2019-06-15T04:10:42.324Z,24.06
2019-06-15T04:13:10.738Z,24.03
2019-06-15T04:15:39.297Z,24.01
2019-06-15T04:18:07.771Z,23.97
2019-06-15T04:20:36.171Z,23.93
2019-06-15T04:23:05.049Z,23.91
2019-06-15T04:25:33.513Z,23.88
2019-06-15T04:28:01.912Z,23.85
2019-06-15T04:30:30.337Z,23.82
2019-06-15T04:32:58.819Z,23.77
2019-06-15T04:35:27.226Z,23.74
2019-06-15T04:37:55.660Z,23.69
2019-06-15T04:40:24.158Z,23.65
2019-06-15T04:42:52.552Z,23.64
2019-06-15T04:45:21.145Z,23.63
2019-06-15T04:47:49.553Z,23.61
2019-06-15T04:50:18.013Z,23.58
2019-06-15T04:52:46.524Z,23.54
2019-06-15T04:55:14.934Z,23.53
2019-06-15T04:57:43.335Z,23.55
2019-06-15T05:00:12.342Z,23.54
2019-06-15T05:02:41.088Z,23.56
2019-06-15T05:05:09.551Z,23.59
2019-06-15T05:07:37.981Z,23.61
2019-06-15T05:10:06.984Z,23.62
2019-06-15T05:12:35.760Z,23.61
2019-06-15T05:15:05.788Z,23.62
2019-06-15T05:17:34.326Z,23.58
2019-06-15T05:20:03.014Z,23.54
2019-06-15T05:22:31.436Z,23.50
2019-06-15T05:24:59.856Z,23.48
2019-06-15T05:27:28.233Z,23.42
2019-06-15T05:29:56.775Z,23.38
2019-06-15T05:32:25.378Z,23.39
2019-06-15T05:34:53.777Z,23.40
2019-06-15T05:37:22.312Z,23.40
2019-06-15T05:39:50.710Z,23.41
2019-06-15T05:42:19.113Z,23.33
2019-06-15T05:44:47.650Z,23.27
2019-06-15T05:47:16.065Z,23.27
2019-06-15T05:49:44.467Z,23.31
2019-06-15T05:52:12.893Z,23.38
2019-06-15T05:54:41.289Z,23.46
2019-06-15T05:57:21.253Z,23.53
2019-06-15T05:59:39.850Z,23.64
2019-06-15T06:02:08.325Z,23.74
2019-06-15T06:04:36.725Z,23.84
2019-06-15T06:07:05.339Z,23.93
2019-06-15T06:09:33.808Z,24.02
2019-06-15T06:12:02.351Z,24.11
2019-06-15T06:14:30.887Z,24.22
2019-06-15T06:16:59.418Z,24.30
2019-06-15T06:19:27.776Z,24.40
2019-06-15T06:21:58.323Z,24.51
2019-06-15T06:24:26.546Z,24.60
2019-06-15T06:26:54.945Z,24.70
2019-06-15T06:29:23.364Z,24.81
2019-06-15T06:31:51.823Z,24.90
2019-06-15T06:34:20.254Z,25.01
2019-06-15T06:36:48.851Z,25.13
2019-06-15T06:39:17.271Z,25.25
2019-06-15T06:41:45.652Z,25.34
2019-06-15T06:44:14.199Z,25.44
2019-06-15T06:46:42.606Z,25.54
2019-06-15T06:49:11.007Z,25.61
2019-06-15T06:51:39.505Z,25.70
2019-06-15T06:54:07.915Z,25.84
2019-06-15T06:56:36.326Z,25.96
2019-06-15T06:59:04.746Z,26.10
2019-06-15T07:01:33.179Z,26.24
2019-06-15T07:04:01.795Z,26.35
2019-06-15T07:06:30.492Z,26.45
2019-06-15T07:08:58.902Z,26.50
2019-06-15T07:11:27.307Z,26.50
2019-06-15T07:13:55.735Z,26.48
2019-06-15T07:16:24.131Z,26.41
2019-06-15T07:18:52.534Z,26.37
2019-06-15T07:21:20.980Z,26.34
2019-06-15T07:23:49.372Z,26.37
2019-06-15T07:26:17.791Z,26.40
2019-06-15T07:28:46.212Z,26.37
2019-06-15T07:31:14.685Z,26.32
2019-06-15T07:33:43.187Z,26.34
2019-06-15T07:36:11.615Z,26.33
2019-06-15T07:38:40.062Z,26.39
2019-06-15T07:41:08.440Z,26.44
2019-06-15T07:43:36.997Z,26.47
2019-06-15T07:46:05.408Z,26.51
2019-06-15T07:48:33.814Z,26.53
2019-06-15T07:51:02.254Z,26.58
2019-06-15T07:53:30.651Z,26.61
2019-06-15T07:55:59.120Z,26.64
2019-06-15T07:58:27.559Z,26.71
2019-06-15T08:00:55.958Z,26.78
2019-06-15T08:03:24.359Z,26.84
2019-06-15T08:05:52.793Z,26.95
2019-06-15T08:08:21.197Z,27.03
2019-06-15T08:10:49.598Z,27.11
2019-06-15T08:13:18.718Z,27.17
2019-06-15T08:15:47.291Z,27.18
2019-06-15T08:18:15.632Z,27.18
2019-06-15T08:20:44.318Z,27.24
2019-06-15T08:23:12.720Z,27.29
2019-06-15T08:25:41.123Z,27.31
2019-06-15T08:28:09.632Z,27.26
2019-06-15T08:31:04.537Z,27.24
2019-06-15T08:33:33.236Z,27.26
2019-06-15T08:36:02.472Z,27.29
2019-06-15T08:38:31.024Z,27.50
2019-06-15T08:40:59.457Z,27.50
2019-06-15T08:43:27.862Z,27.58
2019-06-15T08:45:56.271Z,27.56
2019-06-15T08:48:24.735Z,27.74
2019-06-15T08:50:53.153Z,27.84
2019-06-15T08:53:21.574Z,27.84
2019-06-15T08:55:49.982Z,27.95
2019-06-15T08:58:18.385Z,28.02
2019-06-15T09:00:46.800Z,28.13
2019-06-15T09:03:15.324Z,28.13
2019-06-15T09:05:43.720Z,28.24
2019-06-15T09:08:12.112Z,28.21
2019-06-15T09:10:40.528Z,28.26
2019-06-15T09:13:08.931Z,28.27
2019-06-15T09:15:46.676Z,28.28
2019-06-15T09:18:15.099Z,28.28
2019-06-15T09:20:43.493Z,28.24
2019-06-15T09:23:11.929Z,28.25
2019-06-15T09:25:40.412Z,28.18
2019-06-15T09:28:08.819Z,28.06
2019-06-15T09:30:37.260Z,28.05
2019-06-15T09:33:05.717Z,28.11
2019-06-15T09:35:34.145Z,28.13
2019-06-15T09:38:02.622Z,28.28
2019-06-15T09:40:31.358Z,28.43
2019-06-15T09:42:59.756Z,28.47
2019-06-15T09:45:28.181Z,28.50
2019-06-15T09:47:56.646Z,28.52
2019-06-15T09:50:25.044Z,28.55
2019-06-15T09:52:53.472Z,28.59
2019-06-15T09:55:21.942Z,28.60
2019-06-15T09:57:50.338Z,28.77
2019-06-15T10:00:19.096Z,28.85
2019-06-15T10:02:47.518Z,28.84
2019-06-15T10:05:16.073Z,28.95
2019-06-15T10:07:44.624Z,29.06
2019-06-15T10:10:14.561Z,29.23
2019-06-15T10:12:42.959Z,29.41
2019-06-15T10:15:12.114Z,29.48
2019-06-15T10:17:40.514Z,29.51
2019-06-15T10:20:09.548Z,29.61
2019-06-15T10:22:38.201Z,29.64
2019-06-15T10:25:08.180Z,29.68
2019-06-15T10:27:36.685Z,29.73
2019-06-15T10:30:09.651Z,29.88
2019-06-15T10:32:38.057Z,30.07
2019-06-15T10:35:06.794Z,30.13
2019-06-15T10:37:35.221Z,30.11
2019-06-15T10:40:05.863Z,30.06
2019-06-15T10:42:34.296Z,30.10
2019-06-15T10:45:03.128Z,30.25
2019-06-15T10:47:31.559Z,30.23
2019-06-15T10:49:59.912Z,30.09
2019-06-15T10:52:28.653Z,29.94
2019-06-15T10:54:57.112Z,30.03
2019-06-15T10:57:25.531Z,30.10
2019-06-15T10:59:57.670Z,30.14
2019-06-15T11:02:24.139Z,30.19
2019-06-15T11:04:52.608Z,30.21
2019-06-15T11:07:21.032Z,30.21
2019-06-15T11:09:49.429Z,30.20
2019-06-15T11:12:17.830Z,30.20
2019-06-15T11:14:46.404Z,30.39
2019-06-15T11:17:14.885Z,30.37
2019-06-15T11:19:43.354Z,30.36
2019-06-15T11:22:11.784Z,30.41
2019-06-15T11:24:40.178Z,30.45
2019-06-15T11:27:08.592Z,30.58
2019-06-15T11:29:37.012Z,30.66
2019-06-15T11:32:05.420Z,30.73
2019-06-15T11:34:33.839Z,30.79
2019-06-15T11:37:03.888Z,30.87
2019-06-15T11:39:32.308Z,31.00
2019-06-15T11:42:00.715Z,31.06
2019-06-15T11:44:30.666Z,31.09
2019-06-15T11:46:59.056Z,31.06
2019-06-15T11:49:27.455Z,31.11
2019-06-15T11:51:55.901Z,31.15
2019-06-15T11:54:24.300Z,31.11
2019-06-15T11:56:52.689Z,31.09
2019-06-15T11:59:21.120Z,31.25
2019-06-15T12:01:49.578Z,31.41
2019-06-15T12:04:17.990Z,31.54
2019-06-15T12:06:46.554Z,31.71
2019-06-15T12:09:14.985Z,31.90
2019-06-15T12:11:43.430Z,31.86
2019-06-15T12:14:11.865Z,31.73
2019-06-15T12:16:40.262Z,31.69
2019-06-15T12:19:08.656Z,31.71
2019-06-15T12:21:37.086Z,31.54
2019-06-15T12:24:05.580Z,31.26
2019-06-15T12:26:34.037Z,31.09
2019-06-15T12:29:02.446Z,31.07
2019-06-15T12:31:30.850Z,30.96
2019-06-15T12:33:59.291Z,30.97
2019-06-15T12:36:27.731Z,30.97
2019-06-15T12:38:56.149Z,30.88
2019-06-15T12:41:24.550Z,30.76
2019-06-15T12:43:53.344Z,30.64
2019-06-15T12:46:21.740Z,30.57
2019-06-15T12:48:50.146Z,30.43
2019-06-15T12:51:18.573Z,30.23
2019-06-15T12:53:46.982Z,30.07
2019-06-15T12:56:15.421Z,30.04
2019-06-15T12:58:43.841Z,30.14
2019-06-15T13:01:12.237Z,30.22
2019-06-15T13:03:40.655Z,30.16
2019-06-15T13:06:09.068Z,30.16
2019-06-15T13:08:37.468Z,30.35
2019-06-15T13:11:05.872Z,30.70
2019-06-15T13:13:34.310Z,31.02
2019-06-15T13:16:02.702Z,31.32
2019-06-15T13:18:31.125Z,31.66
2019-06-15T13:20:59.575Z,31.92
2019-06-15T13:23:27.990Z,31.92
2019-06-15T13:25:56.389Z,31.61
2019-06-15T13:28:24.872Z,31.46
2019-06-15T13:30:53.273Z,31.42
2019-06-15T13:33:23.377Z,31.48
2019-06-15T13:35:51.770Z,31.47
2019-06-15T13:38:20.170Z,31.49
2019-06-15T13:40:48.564Z,31.47
2019-06-15T13:43:16.998Z,31.44
2019-06-15T13:45:45.764Z,31.35
2019-06-15T13:48:14.167Z,31.26
2019-06-15T13:50:42.594Z,31.14
2019-06-15T13:53:11.007Z,31.07
2019-06-15T13:55:39.478Z,30.96
2019-06-15T13:58:08.297Z,30.87
2019-06-15T14:00:36.762Z,30.75
2019-06-15T14:03:05.400Z,30.68
2019-06-15T14:05:33.833Z,30.66
2019-06-15T14:08:02.231Z,30.57
2019-06-15T14:10:30.630Z,30.41
2019-06-15T14:12:59.162Z,30.21
2019-06-15T14:15:27.563Z,29.90
2019-06-15T14:17:55.976Z,29.79
2019-06-15T14:20:24.450Z,29.65
2019-06-15T14:22:52.836Z,29.62
2019-06-15T14:25:21.232Z,29.69
2019-06-15T14:27:49.662Z,29.66
2019-06-15T14:30:18.311Z,29.65
2019-06-15T14:32:46.720Z,29.63
2019-06-15T14:35:15.320Z,29.62
2019-06-15T14:37:43.739Z,29.68
2019-06-15T14:40:12.663Z,29.75
2019-06-15T14:42:41.144Z,29.82
2019-06-15T14:45:10.775Z,29.82
2019-06-15T14:47:39.247Z,29.77
2019-06-15T14:50:08.741Z,29.70
2019-06-15T14:52:37.146Z,29.65
2019-06-15T14:55:07.324Z,29.70
2019-06-15T14:57:36.196Z,29.72
2019-06-15T15:00:08.920Z,29.73
2019-06-15T15:02:37.257Z,29.72
2019-06-15T15:05:08.317Z,29.65
2019-06-15T15:07:37.091Z,29.62
2019-06-15T15:10:08.668Z,29.55
2019-06-15T15:12:37.446Z,29.55
2019-06-15T15:15:09.484Z,29.56
2019-06-15T15:17:38.725Z,29.49
2019-06-15T15:20:08.191Z,29.39
2019-06-15T15:22:37.231Z,29.37
2019-06-15T15:25:06.706Z,29.38
2019-06-15T15:27:37.431Z,29.40
2019-06-15T15:30:13.404Z,29.53
2019-06-15T15:32:42.003Z,29.65
2019-06-15T15:35:10.558Z,29.69
2019-06-15T15:37:38.957Z,29.76
2019-06-15T15:40:07.948Z,29.87
2019-06-15T15:42:37.154Z,29.90
2019-06-15T15:45:07.544Z,29.93
2019-06-15T15:47:36.203Z,29.97
2019-06-15T15:50:06.915Z,29.90
2019-06-15T15:52:37.482Z,29.89
2019-06-15T15:55:07.225Z,29.88
2019-06-15T15:57:36.352Z,29.91
2019-06-15T16:00:07.465Z,29.97
2019-06-15T16:02:47.691Z,29.95
2019-06-15T16:05:07.750Z,29.92
2019-06-15T16:07:36.524Z,29.90
2019-06-15T16:10:06.894Z,29.86
2019-06-15T16:12:36.197Z,29.79
2019-06-15T16:15:07.626Z,29.71
2019-06-15T16:17:37.220Z,29.63
2019-06-15T16:20:08.921Z,29.53
2019-06-15T16:22:37.410Z,29.44
2019-06-15T16:25:06.803Z,29.41
2019-06-15T16:27:37.104Z,29.36
2019-06-15T16:30:09.509Z,29.29
2019-06-15T16:32:38.154Z,29.22
2019-06-15T16:35:08.229Z,29.15
2019-06-15T16:37:36.629Z,29.09
2019-06-15T16:40:09.021Z,29.05
2019-06-15T16:42:37.418Z,29.02
2019-06-15T16:45:06.780Z,28.93
2019-06-15T16:47:36.364Z,28.87
2019-06-15T16:50:07.000Z,28.84
2019-06-15T16:52:36.373Z,28.83
2019-06-15T16:55:10.947Z,28.82
2019-06-15T16:57:38.740Z,28.83
2019-06-15T17:00:19.135Z,28.84
2019-06-15T17:02:48.064Z,28.84
2019-06-15T17:05:17.198Z,28.80
2019-06-15T17:07:46.232Z,28.78
2019-06-15T17:10:16.910Z,28.77
2019-06-15T17:12:47.568Z,28.79
2019-06-15T17:15:16.994Z,28.79
2019-06-15T17:17:46.094Z,28.79
2019-06-15T17:20:16.270Z,28.77
2019-06-15T17:22:47.283Z,28.78
2019-06-15T17:25:16.567Z,28.76
2019-06-15T17:27:46.967Z,28.77
2019-06-15T17:30:17.232Z,28.80
2019-06-15T17:32:45.805Z,28.91
2019-06-15T17:35:16.763Z,29.30
2019-06-15T17:37:46.884Z,29.87
2019-06-15T17:40:16.249Z,30.38
2019-06-15T17:42:44.827Z,30.61
2019-06-15T17:45:15.998Z,30.46
2019-06-15T17:47:43.736Z,30.13
2019-06-15T17:50:12.197Z,29.82
2019-06-15T17:52:40.620Z,29.56
2019-06-15T17:55:09.093Z,29.37
2019-06-15T17:57:37.648Z,29.18
2019-06-15T18:00:09.641Z,29.04
2019-06-15T18:02:38.419Z,28.89
2019-06-15T18:05:07.329Z,28.80
2019-06-15T18:07:36.083Z,28.73
2019-06-15T18:10:36.238Z,28.69
2019-06-15T18:13:07.053Z,28.61
2019-06-15T18:15:36.306Z,28.54
2019-06-15T18:18:06.921Z,28.49
2019-06-15T18:20:36.422Z,28.44
2019-06-15T18:23:06.006Z,28.40
2019-06-15T18:25:37.053Z,28.31
2019-06-15T18:28:06.469Z,28.25
2019-06-15T18:30:37.135Z,28.15
2019-06-15T18:33:07.119Z,28.04
2019-06-15T18:35:36.115Z,27.98
2019-06-15T18:38:07.024Z,27.95
2019-06-15T18:40:37.094Z,27.95
2019-06-15T18:43:07.364Z,27.95
2019-06-15T18:45:36.227Z,27.95
2019-06-15T18:48:06.246Z,27.89
2019-06-15T18:50:37.807Z,27.84
2019-06-15T18:53:07.289Z,27.81
2019-06-15T18:55:36.381Z,27.80
2019-06-15T18:58:05.938Z,27.74
2019-06-15T19:00:36.863Z,27.69
2019-06-15T19:03:06.902Z,27.60
2019-06-15T19:05:37.254Z,27.49
2019-06-15T19:08:06.775Z,27.45
2019-06-15T19:10:36.708Z,27.42
2019-06-15T19:13:07.572Z,27.42
2019-06-15T19:15:37.258Z,27.42
2019-06-15T19:18:07.328Z,27.42
2019-06-15T19:20:37.256Z,27.40
2019-06-15T19:23:06.890Z,27.39
2019-06-15T19:25:36.570Z,27.29
2019-06-15T19:28:05.825Z,27.26
2019-06-15T19:30:37.106Z,27.30
2019-06-15T19:33:04.747Z,27.27
2019-06-15T19:35:33.250Z,27.26
2019-06-15T19:38:01.647Z,27.15
2019-06-15T19:40:30.038Z,27.13
2019-06-15T19:42:58.750Z,27.05
2019-06-15T19:45:27.288Z,27.00
2019-06-15T19:47:55.696Z,26.84
2019-06-15T19:50:26.811Z,26.84
2019-06-15T19:52:56.540Z,26.83
2019-06-15T19:55:26.888Z,26.83
2019-06-15T19:57:56.896Z,26.82
2019-06-15T20:00:27.087Z,26.69
2019-06-15T20:02:57.275Z,26.69
2019-06-15T20:05:28.596Z,26.82
2019-06-15T20:07:57.007Z,26.75
2019-06-15T20:10:26.597Z,26.64
2019-06-15T20:12:56.220Z,26.61
2019-06-15T20:15:26.297Z,26.56
2019-06-15T20:17:57.037Z,26.55
2019-06-15T20:20:26.647Z,26.55
2019-06-15T20:22:56.104Z,26.49
2019-06-15T20:25:26.712Z,26.47
2019-06-15T20:27:56.367Z,26.40
2019-06-15T20:30:24.936Z,26.38
2019-06-15T20:32:53.341Z,26.37
2019-06-15T20:35:21.913Z,26.34
2019-06-15T20:37:50.377Z,26.37
2019-06-15T20:40:19.052Z,26.37
2019-06-15T20:42:47.741Z,26.36
2019-06-15T20:45:16.690Z,26.35
2019-06-15T20:47:47.761Z,26.34
2019-06-15T20:50:27.334Z,26.36
2019-06-15T20:52:47.171Z,26.29
2019-06-15T20:55:16.328Z,26.27
2019-06-15T20:57:46.091Z,26.28
2019-06-15T21:00:16.727Z,26.26
2019-06-15T21:02:45.227Z,26.23
2019-06-15T21:05:32.637Z,26.20
2019-06-15T21:07:46.708Z,26.20
2019-06-15T21:10:16.086Z,26.16
2019-06-15T21:12:46.910Z,26.12
2019-06-15T21:15:15.250Z,26.09
2019-06-15T21:17:43.648Z,26.03
2019-06-15T21:20:16.105Z,26.03
2019-06-15T21:22:46.369Z,26.00
2019-06-15T21:25:17.369Z,25.98
2019-06-15T21:27:44.433Z,25.92
2019-06-15T21:30:16.381Z,25.89
2019-06-15T21:32:46.446Z,25.87
2019-06-15T21:35:14.229Z,25.86
2019-06-15T21:37:42.627Z,25.83
2019-06-15T21:40:11.484Z,25.78
2019-06-15T21:42:39.895Z,25.77
2019-06-15T21:45:08.640Z,25.72
2019-06-15T21:47:37.406Z,25.61
2019-06-15T21:50:11.013Z,25.52
2019-06-15T21:52:39.409Z,25.46
2019-06-15T21:55:08.140Z,25.34
2019-06-15T21:57:36.843Z,25.34
2019-06-15T22:00:11.868Z,25.41
2019-06-15T22:02:40.340Z,25.44
2019-06-15T22:05:09.092Z,25.43
2019-06-15T22:07:37.489Z,25.42
2019-06-15T22:10:08.052Z,25.28
2019-06-15T22:12:36.685Z,25.10
2019-06-15T22:15:07.356Z,24.96
2019-06-15T22:17:37.074Z,24.84
2019-06-15T22:20:09.921Z,24.76
2019-06-15T22:22:38.325Z,24.72
2019-06-15T22:25:07.848Z,24.65
2019-06-15T22:27:36.593Z,24.60
2019-06-15T22:30:08.485Z,24.54
2019-06-15T22:32:36.880Z,24.48
2019-06-15T22:35:08.176Z,24.40
2019-06-15T22:37:36.637Z,24.32
2019-06-15T22:40:07.692Z,24.27
2019-06-15T22:42:36.448Z,24.23
2019-06-15T22:45:08.944Z,24.06
2019-06-15T22:47:37.411Z,23.89
2019-06-15T22:50:08.082Z,23.54
2019-06-15T22:52:36.912Z,22.88
2019-06-15T22:55:08.656Z,22.16
2019-06-15T22:57:37.306Z,21.72
2019-06-15T23:00:07.756Z,21.34
2019-06-15T23:02:36.461Z,21.13
2019-06-15T23:05:06.623Z,20.87
2019-06-15T23:07:36.285Z,20.77
2019-06-15T23:10:08.259Z,20.51
2019-06-15T23:12:37.412Z,20.32
2019-06-15T23:15:07.734Z,20.14
2019-06-15T23:17:37.116Z,19.94
2019-06-15T23:20:09.776Z,19.95
2019-06-15T23:22:38.168Z,19.92
2019-06-15T23:25:06.708Z,19.88
2019-06-15T23:27:35.356Z,19.79
2019-06-15T23:30:06.890Z,19.76
2019-06-15T23:32:35.387Z,19.61
2019-06-15T23:35:08.605Z,19.37
2019-06-15T23:37:37.521Z,19.21
2019-06-15T23:40:19.166Z,18.95
2019-06-15T23:42:48.698Z,18.84
2019-06-15T23:45:20.978Z,18.74
2019-06-15T23:47:49.713Z,18.64
2019-06-15T23:50:19.550Z,18.47
2019-06-15T23:52:48.509Z,18.48
2019-06-15T23:55:17.883Z,18.51
2019-06-15T23:57:46.653Z,18.44
